Climatologie pour Saint-Brevin les Pins
Jour • Résumé pour janvier 6, 2017 Système :  Métrique    Anglais   Mixte
« - 1 jour
+ 1 jour »
Jour Semaine Mois Année Personnalisé
  Maximum : Minimum : Moyenne :
Température sous abri : 5.7 °C -4.3 °C -0.5 °C
Point de rosée : 3.3 °C -4.8 °C -1.5 °C
Humidité : 98 % 77 % 93 %
Vitesse du vent : 11.3 km/h 0.0 km/h 2.1 km/h
Rafale : 16.1 km/h - -
Direction :- - ENE
Pression : 1038.5 hPa 1035.8 hPa -
Précipitations : 0.3 mm    
Historical Graphs
 
 
Tableau de données pour janvier 6, 2017
Heure Tempé Pt rosée Pression Vent Vitesse Rafale Humidité Taux pluie (/hr) Soleil
00:00 -1.8 °C -2.5 °C 1036.1 hPa East 1.6 km/h 3.2 km/h 95 % 0.0 mm 0 W/m2
00:05 -1.7 °C -2.4 °C 1036.1 hPa Calm   3.2 km/h 95 % 0.0 mm 0 W/m2
00:10 -1.7 °C -2.4 °C 1036.1 hPa East 1.6 km/h 3.2 km/h 95 % 0.0 mm 0 W/m2
00:15 -1.4 °C -1.9 °C 1036.1 hPa Calm   3.2 km/h 96 % 0.0 mm 0 W/m2
00:20 -1.3 °C -2.0 °C 1036.1 hPa Calm   3.2 km/h 95 % 0.0 mm 0 W/m2
00:25 -1.4 °C -2.1 °C 1036.1 hPa Calm   3.2 km/h 95 % 0.0 mm 0 W/m2
00:30 -1.7 °C -2.4 °C 1036.1 hPa Calm   1.6 km/h 95 % 0.0 mm 0 W/m2
00:35 -1.8 °C -2.5 °C 1036.1 hPa Calm     95 % 0.0 mm 0 W/m2
00:40 -1.9 °C -2.6 °C 1036.1 hPa Calm   1.6 km/h 95 % 0.0 mm 0 W/m2
00:45 -2.1 °C -2.7 °C 1036.1 hPa Calm   1.6 km/h 95 % 0.0 mm 0 W/m2
00:50 -1.8 °C -2.4 °C 1036.1 hPa Calm   1.6 km/h 96 % 0.0 mm 0 W/m2
01:00 -1.8 °C -2.3 °C 1036.1 hPa East 1.6 km/h 3.2 km/h 96 % 0.0 mm 0 W/m2
01:05 -1.8 °C -2.3 °C 1035.8 hPa East 1.6 km/h 3.2 km/h 96 % 0.0 mm 0 W/m2
01:10 -1.7 °C -2.3 °C 1035.8 hPa Calm   3.2 km/h 96 % 0.0 mm 0 W/m2
01:15 -1.8 °C -2.5 °C 1035.8 hPa East 1.6 km/h 4.8 km/h 95 % 0.0 mm 0 W/m2
01:20 -2.0 °C -2.7 °C 1035.8 hPa East 1.6 km/h 4.8 km/h 95 % 0.0 mm 0 W/m2
01:25 -1.9 °C -2.5 °C 1035.8 hPa Calm   4.8 km/h 96 % 0.0 mm 0 W/m2
01:30 -2.0 °C -2.6 °C 1035.8 hPa Calm   4.8 km/h 96 % 0.0 mm 0 W/m2
01:35 -2.4 °C -3.1 °C 1036.1 hPa Calm   4.8 km/h 95 % 0.0 mm 0 W/m2
01:40 -2.4 °C -2.9 °C 1035.8 hPa Calm   3.2 km/h 96 % 0.0 mm 0 W/m2
01:45 -2.3 °C -2.9 °C 1036.1 hPa Calm   3.2 km/h 96 % 0.0 mm 0 W/m2
01:50 -2.1 °C -2.6 °C 1035.8 hPa Calm   3.2 km/h 96 % 0.0 mm 0 W/m2
01:55 -1.9 °C -2.5 °C 1035.8 hPa East 1.6 km/h 3.2 km/h 96 % 0.0 mm 0 W/m2
02:00 -2.1 °C -2.7 °C 1036.1 hPa ESE 3.2 km/h 8.0 km/h 96 % 0.0 mm 0 W/m2
02:05 -2.7 °C -3.4 °C 1036.1 hPa Calm   8.0 km/h 95 % 0.0 mm 0 W/m2
02:10 -2.8 °C -3.3 °C 1036.1 hPa Calm   3.2 km/h 96 % 0.0 mm 0 W/m2
02:15 -2.8 °C -3.5 °C 1036.1 hPa Calm     95 % 0.0 mm 0 W/m2
02:20 -2.9 °C -3.5 °C 1036.1 hPa Calm     96 % 0.0 mm 0 W/m2
02:25 -2.9 °C -3.4 °C 1036.1 hPa Calm     96 % 0.0 mm 0 W/m2
02:30 -2.9 °C -3.4 °C 1036.1 hPa Calm     96 % 0.0 mm 0 W/m2
02:35 -2.9 °C -3.5 °C 1036.1 hPa Calm     96 % 0.0 mm 0 W/m2
02:40 -2.9 °C -3.5 °C 1036.1 hPa Calm     96 % 0.0 mm 0 W/m2
02:45 -2.6 °C -3.2 °C 1036.1 hPa Calm   1.6 km/h 96 % 0.0 mm 0 W/m2
02:50 -2.5 °C -3.1 °C 1036.1 hPa ESE 1.6 km/h 3.2 km/h 96 % 0.0 mm 0 W/m2
02:55 -2.6 °C -3.1 °C 1036.1 hPa Calm   3.2 km/h 96 % 0.0 mm 0 W/m2
03:00 -2.7 °C -3.3 °C 1036.5 hPa ESE 1.6 km/h 3.2 km/h 96 % 0.0 mm 0 W/m2
03:05 -2.8 °C -3.4 °C 1036.5 hPa Calm   1.6 km/h 96 % 0.0 mm 0 W/m2
03:10 -2.9 °C -3.5 °C 1036.5 hPa Calm   1.6 km/h 96 % 0.0 mm 0 W/m2
03:15 -3.0 °C -3.5 °C 1036.5 hPa Calm   1.6 km/h 96 % 0.0 mm 0 W/m2
03:20 -2.9 °C -3.4 °C 1036.1 hPa Calm   1.6 km/h 96 % 0.0 mm 0 W/m2
03:25 -2.4 °C -2.9 °C 1036.1 hPa ESE 1.6 km/h 3.2 km/h 97 % 0.0 mm 0 W/m2
03:30 -2.2 °C -2.8 °C 1036.1 hPa ESE 1.6 km/h 3.2 km/h 96 % 0.0 mm 0 W/m2
03:35 -2.1 °C -2.7 °C 1036.5 hPa ESE 1.6 km/h 4.8 km/h 96 % 0.0 mm 0 W/m2
03:40 -1.9 °C -2.5 °C 1036.5 hPa ESE 1.6 km/h 4.8 km/h 96 % 0.0 mm 0 W/m2
03:45 -1.8 °C -2.3 °C 1036.5 hPa Calm   4.8 km/h 96 % 0.0 mm 0 W/m2
03:50 -1.6 °C -2.2 °C 1036.1 hPa SE 3.2 km/h 8.0 km/h 96 % 0.0 mm 0 W/m2
03:55 -1.3 °C -1.9 °C 1036.1 hPa SE 3.2 km/h 8.0 km/h 96 % 0.0 mm 0 W/m2
04:00 -1.4 °C -2.0 °C 1036.1 hPa Calm   6.4 km/h 96 % 0.0 mm 0 W/m2
04:05 -1.5 °C -2.1 °C 1036.1 hPa SE 3.2 km/h 6.4 km/h 96 % 0.0 mm 0 W/m2
04:10 -1.5 °C -2.1 °C 1036.1 hPa SE 3.2 km/h 6.4 km/h 96 % 0.0 mm 0 W/m2
04:15 -1.4 °C -2.0 °C 1036.1 hPa SE 3.2 km/h 6.4 km/h 96 % 0.0 mm 0 W/m2
04:20 -1.4 °C -1.9 °C 1036.1 hPa Calm   6.4 km/h 96 % 0.0 mm 0 W/m2
04:25 -1.3 °C -1.9 °C 1036.1 hPa Calm   4.8 km/h 96 % 0.0 mm 0 W/m2
04:30 -1.6 °C -2.1 °C 1036.1 hPa Calm   4.8 km/h 96 % 0.0 mm 0 W/m2
04:35 -1.6 °C -2.1 °C 1036.5 hPa Calm   3.2 km/h 96 % 0.0 mm 0 W/m2
04:40 -1.9 °C -2.5 °C 1036.5 hPa Calm   1.6 km/h 96 % 0.0 mm 0 W/m2
04:45 -2.4 °C -3.1 °C 1036.5 hPa Calm   1.6 km/h 95 % 0.0 mm 0 W/m2
04:50 -2.6 °C -3.2 °C 1036.5 hPa Calm     96 % 0.0 mm 0 W/m2
04:55 -2.8 °C -3.3 °C 1036.5 hPa Calm     96 % 0.0 mm 0 W/m2
05:00 -2.8 °C -3.4 °C 1036.5 hPa Calm     96 % 0.0 mm 0 W/m2
05:05 -3.1 °C -3.7 °C 1036.5 hPa Calm   1.6 km/h 96 % 0.0 mm 0 W/m2
05:15 -3.2 °C -3.7 °C 1036.5 hPa Calm     96 % 0.0 mm 0 W/m2
05:20 -3.1 °C -3.7 °C 1036.5 hPa Calm     96 % 0.0 mm 0 W/m2
05:25 -3.1 °C -3.7 °C 1036.5 hPa Calm     96 % 0.0 mm 0 W/m2
05:30 -3.3 °C -3.8 °C 1036.5 hPa Calm     96 % 0.0 mm 0 W/m2
05:35 -3.1 °C -3.7 °C 1036.5 hPa Calm   1.6 km/h 96 % 0.0 mm 0 W/m2
05:40 -3.1 °C -3.7 °C 1036.5 hPa Calm   1.6 km/h 96 % 0.0 mm 0 W/m2
05:45 -3.3 °C -3.8 °C 1036.5 hPa Calm     96 % 0.0 mm 0 W/m2
05:50 -3.4 °C -3.9 °C 1036.5 hPa Calm     96 % 0.0 mm 0 W/m2
05:55 -3.5 °C -4.0 °C 1036.5 hPa Calm     96 % 0.0 mm 0 W/m2
06:00 -3.6 °C -4.1 °C 1036.5 hPa Calm     96 % 0.0 mm 0 W/m2
06:05 -3.7 °C -4.2 °C 1036.8 hPa Calm     96 % 0.0 mm 0 W/m2
06:10 -3.7 °C -4.2 °C 1036.8 hPa Calm     96 % 0.0 mm 0 W/m2
06:15 -3.8 °C -4.4 °C 1036.8 hPa Calm     96 % 0.0 mm 0 W/m2
06:20 -3.9 °C -4.4 °C 1036.8 hPa Calm     96 % 0.0 mm 0 W/m2
06:25 -3.9 °C -4.5 °C 1036.8 hPa Calm     96 % 0.0 mm 0 W/m2
06:35 -3.9 °C -4.5 °C 1036.8 hPa Calm     96 % 0.0 mm 0 W/m2
06:40 -3.9 °C -4.5 °C 1036.8 hPa Calm     96 % 0.0 mm 0 W/m2
06:45 -3.9 °C -4.4 °C 1036.8 hPa Calm     96 % 0.0 mm 0 W/m2
06:50 -4.0 °C -4.5 °C 1036.8 hPa Calm     96 % 0.0 mm 0 W/m2
06:55 -3.9 °C -4.5 °C 1037.1 hPa Calm   1.6 km/h 96 % 0.0 mm 0 W/m2
07:00 -4.1 °C -4.6 °C 1037.1 hPa Calm   1.6 km/h 96 % 0.0 mm 0 W/m2
07:05 -4.2 °C -4.7 °C 1037.1 hPa Calm     96 % 0.0 mm 0 W/m2
07:10 -4.3 °C -4.8 °C 1037.1 hPa Calm     96 % 0.0 mm 0 W/m2
07:15 -4.3 °C -4.8 °C 1037.1 hPa Calm     96 % 0.0 mm 0 W/m2
07:20 -4.0 °C -4.4 °C 1037.1 hPa Calm     97 % 0.0 mm 0 W/m2
07:25 -3.9 °C -4.4 °C 1037.1 hPa Calm   1.6 km/h 96 % 0.0 mm 0 W/m2
07:30 -3.9 °C -4.5 °C 1037.1 hPa Calm   1.6 km/h 96 % 0.0 mm 0 W/m2
07:35 -3.8 °C -4.3 °C 1037.1 hPa Calm   1.6 km/h 96 % 0.0 mm 0 W/m2
07:40 -3.7 °C -4.3 °C 1037.1 hPa Calm   1.6 km/h 96 % 0.0 mm 0 W/m2
07:45 -3.6 °C -4.1 °C 1037.1 hPa Calm   1.6 km/h 96 % 0.0 mm 0 W/m2
07:50 -3.3 °C -3.7 °C 1037.1 hPa Calm   1.6 km/h 97 % 0.0 mm 0 W/m2
07:55 -3.3 °C -3.7 °C 1037.5 hPa Calm   1.6 km/h 97 % 0.0 mm 0 W/m2
08:00 -3.2 °C -3.6 °C 1037.5 hPa Calm   1.6 km/h 97 % 0.0 mm 0 W/m2
08:05 -3.1 °C -3.5 °C 1037.5 hPa Calm   1.6 km/h 97 % 0.0 mm 0 W/m2
08:10 -2.8 °C -3.2 °C 1037.5 hPa Calm   1.6 km/h 97 % 0.0 mm 0 W/m2
08:15 -2.9 °C -3.5 °C 1037.1 hPa Calm   1.6 km/h 96 % 0.0 mm 0 W/m2
08:20 -3.2 °C -3.7 °C 1037.1 hPa Calm   1.6 km/h 96 % 0.0 mm 0 W/m2
08:25 -3.2 °C -3.7 °C 1037.1 hPa Calm     96 % 0.0 mm 0 W/m2
08:30 -2.9 °C -3.4 °C 1037.1 hPa Calm   1.6 km/h 97 % 0.0 mm 0 W/m2
08:35 -2.9 °C -3.4 °C 1037.1 hPa Calm   1.6 km/h 97 % 0.0 mm 0 W/m2
08:40 -2.9 °C -3.4 °C 1037.5 hPa Calm   1.6 km/h 97 % 0.0 mm 0 W/m2
08:45 -3.1 °C -3.5 °C 1037.5 hPa Calm   1.6 km/h 97 % 0.0 mm 0 W/m2
08:50 -3.3 °C -3.9 °C 1037.5 hPa Calm     96 % 0.0 mm 0 W/m2
08:55 -3.4 °C -4.0 °C 1037.5 hPa Calm     96 % 0.0 mm 0 W/m2
09:00 -3.5 °C -4.0 °C 1037.5 hPa Calm     96 % 0.0 mm 5 W/m2
09:05 -3.4 °C -3.8 °C 1037.8 hPa Calm     97 % 0.0 mm 7 W/m2
09:10 -3.3 °C -3.7 °C 1037.5 hPa Calm     97 % 0.0 mm 9 W/m2
09:15 -3.4 °C -3.8 °C 1037.8 hPa Calm   1.6 km/h 97 % 0.0 mm 11 W/m2
09:20 -3.5 °C -4.0 °C 1037.8 hPa Calm   1.6 km/h 96 % 0.0 mm 12 W/m2
09:25 -3.6 °C -4.1 °C 1037.8 hPa Calm     96 % 0.0 mm 14 W/m2
09:35 -3.4 °C -3.9 °C 1037.8 hPa Calm     97 % 0.0 mm 18 W/m2
09:40 -3.1 °C -3.5 °C 1037.8 hPa Calm   1.6 km/h 97 % 0.0 mm 21 W/m2
09:45 -2.7 °C -3.1 °C 1037.8 hPa SE 1.6 km/h 3.2 km/h 97 % 0.0 mm 23 W/m2
09:50 -2.3 °C -2.7 °C 1037.8 hPa Calm   3.2 km/h 97 % 0.0 mm 26 W/m2
09:55 -2.2 °C -2.6 °C 1037.8 hPa Calm   3.2 km/h 97 % 0.0 mm 32 W/m2
10:00 -2.1 °C -2.5 °C 1037.8 hPa Calm   3.2 km/h 97 % 0.0 mm 35 W/m2
10:05 -1.9 °C -2.3 °C 1037.8 hPa Calm   1.6 km/h 97 % 0.0 mm 33 W/m2
10:10 -1.8 °C -2.2 °C 1037.8 hPa Calm   1.6 km/h 97 % 0.0 mm 42 W/m2
10:15 -1.4 °C -1.9 °C 1037.8 hPa East 3.2 km/h 4.8 km/h 97 % 0.0 mm 46 W/m2
10:25 -1.2 °C -1.6 °C 1038.1 hPa East 1.6 km/h 3.2 km/h 97 % 0.0 mm 53 W/m2
10:30 -1.1 °C -1.5 °C 1038.1 hPa ENE 1.6 km/h 4.8 km/h 97 % 0.0 mm 84 W/m2
10:35 -1.0 °C -1.4 °C 1038.1 hPa ENE 1.6 km/h 6.4 km/h 97 % 0.0 mm 113 W/m2
10:40 -0.7 °C -1.1 °C 1038.1 hPa East 3.2 km/h 6.4 km/h 97 % 0.0 mm 160 W/m2
10:45 -0.6 °C -1.0 °C 1038.1 hPa Calm   4.8 km/h 97 % 0.0 mm 209 W/m2
10:50 -0.4 °C -0.9 °C 1038.1 hPa Calm   4.8 km/h 97 % 0.0 mm 186 W/m2
11:00 0.1 °C -0.2 °C 1038.1 hPa Calm   1.6 km/h 98 % 0.3 mm 197 W/m2
11:05 0.2 °C -0.3 °C 1038.1 hPa Calm   3.2 km/h 97 % 0.3 mm 197 W/m2
11:10 0.3 °C -0.1 °C 1038.5 hPa East 1.6 km/h 4.8 km/h 97 % 0.3 mm 213 W/m2
11:15 0.6 °C 0.1 °C 1038.1 hPa East 3.2 km/h 4.8 km/h 97 % 0.3 mm 220 W/m2
11:20 0.9 °C 0.5 °C 1038.5 hPa ENE 1.6 km/h 4.8 km/h 97 % 0.3 mm 223 W/m2
11:25 1.0 °C 0.6 °C 1038.5 hPa ENE 3.2 km/h 4.8 km/h 97 % 0.3 mm 236 W/m2
11:30 1.2 °C 0.7 °C 1038.1 hPa ENE 3.2 km/h 4.8 km/h 97 % 0.3 mm 234 W/m2
11:35 1.3 °C 0.9 °C 1038.1 hPa ENE 1.6 km/h 4.8 km/h 97 % 0.3 mm 221 W/m2
11:40 1.6 °C 1.1 °C 1038.1 hPa Calm   4.8 km/h 97 % 0.3 mm 236 W/m2
11:45 1.8 °C 1.4 °C 1038.1 hPa Calm   4.8 km/h 97 % 0.3 mm 267 W/m2
11:50 2.1 °C 1.7 °C 1038.1 hPa East 1.6 km/h 4.8 km/h 97 % 0.3 mm 274 W/m2
11:55 2.2 °C 1.7 °C 1038.1 hPa NE 1.6 km/h 4.8 km/h 96 % 0.0 mm 285 W/m2
12:00 2.3 °C 1.7 °C 1038.1 hPa ENE 1.6 km/h 6.4 km/h 96 % 0.0 mm 278 W/m2
12:05 2.4 °C 1.9 °C 1038.1 hPa ENE 3.2 km/h 6.4 km/h 96 % 0.0 mm 274 W/m2
12:10 2.6 °C 2.0 °C 1037.8 hPa ENE 4.8 km/h 8.0 km/h 96 % 0.0 mm 276 W/m2
12:15 2.7 °C 2.0 °C 1037.8 hPa East 3.2 km/h 8.0 km/h 95 % 0.0 mm 295 W/m2
12:20 2.9 °C 2.2 °C 1037.8 hPa Calm   6.4 km/h 95 % 0.0 mm 299 W/m2
12:25 3.3 °C 2.6 °C 1037.8 hPa ENE 3.2 km/h 6.4 km/h 95 % 0.0 mm 290 W/m2
12:30 3.3 °C 2.5 °C 1037.8 hPa ENE 3.2 km/h 8.0 km/h 94 % 0.0 mm 283 W/m2
12:35 3.6 °C 2.7 °C 1037.8 hPa Calm   8.0 km/h 94 % 0.0 mm 288 W/m2
12:40 3.7 °C 2.6 °C 1037.8 hPa Calm   6.4 km/h 93 % 0.0 mm 288 W/m2
12:50 3.9 °C 2.9 °C 1037.8 hPa East 1.6 km/h 11.3 km/h 93 % 0.0 mm 295 W/m2
12:55 3.9 °C 2.9 °C 1037.8 hPa ENE 8.0 km/h 12.9 km/h 93 % 0.0 mm 292 W/m2
13:00 4.2 °C 3.0 °C 1037.5 hPa East 6.4 km/h 12.9 km/h 92 % 0.0 mm 301 W/m2
13:05 4.4 °C 3.3 °C 1037.5 hPa East 11.3 km/h 12.9 km/h 92 % 0.0 mm 316 W/m2
13:10 4.6 °C 3.3 °C 1037.5 hPa ENE 9.7 km/h 12.9 km/h 91 % 0.0 mm 315 W/m2
13:15 4.8 °C 3.3 °C 1037.5 hPa ENE 6.4 km/h 12.9 km/h 90 % 0.0 mm 316 W/m2
13:20 5.0 °C 3.3 °C 1037.1 hPa ENE 3.2 km/h 11.3 km/h 89 % 0.0 mm 320 W/m2
13:25 5.0 °C 3.2 °C 1037.1 hPa ESE 6.4 km/h 11.3 km/h 88 % 0.0 mm 294 W/m2
13:30 5.2 °C 3.2 °C 1037.1 hPa ESE 11.3 km/h 12.9 km/h 87 % 0.0 mm 313 W/m2
13:35 5.3 °C 3.1 °C 1036.8 hPa SE 3.2 km/h 14.5 km/h 86 % 0.0 mm 302 W/m2
13:40 5.4 °C 3.3 °C 1036.8 hPa ESE 9.7 km/h 14.5 km/h 86 % 0.0 mm 294 W/m2
13:45 5.5 °C 3.0 °C 1036.8 hPa East 8.0 km/h 14.5 km/h 84 % 0.0 mm 290 W/m2
13:50 5.5 °C 2.7 °C 1036.8 hPa East 8.0 km/h 14.5 km/h 82 % 0.0 mm 253 W/m2
13:55 5.7 °C 3.0 °C 1036.5 hPa ESE 3.2 km/h 12.9 km/h 83 % 0.0 mm 202 W/m2
14:00 5.3 °C 2.3 °C 1036.8 hPa ESE 6.4 km/h 14.5 km/h 81 % 0.0 mm 221 W/m2
14:05 5.3 °C 2.5 °C 1036.5 hPa ESE 1.6 km/h 14.5 km/h 82 % 0.0 mm 281 W/m2
14:10 5.4 °C 2.4 °C 1036.5 hPa ENE 4.8 km/h 14.5 km/h 81 % 0.0 mm 294 W/m2
14:15 5.6 °C 2.6 °C 1036.5 hPa ENE 3.2 km/h 14.5 km/h 81 % 0.0 mm 287 W/m2
14:20 5.6 °C 2.2 °C 1036.5 hPa ESE 11.3 km/h 14.5 km/h 79 % 0.0 mm 279 W/m2
14:25 5.4 °C 2.1 °C 1036.5 hPa SE 8.0 km/h 14.5 km/h 79 % 0.0 mm 251 W/m2
14:30 5.5 °C 2.1 °C 1036.5 hPa East 4.8 km/h 12.9 km/h 79 % 0.0 mm 274 W/m2
14:35 5.6 °C 2.3 °C 1036.5 hPa East 8.0 km/h 14.5 km/h 79 % 0.0 mm 267 W/m2
14:40 5.4 °C 1.9 °C 1036.5 hPa East 8.0 km/h 14.5 km/h 78 % 0.0 mm 260 W/m2
14:45 5.6 °C 2.2 °C 1036.5 hPa ESE 8.0 km/h 14.5 km/h 79 % 0.0 mm 253 W/m2
14:50 5.3 °C 1.6 °C 1036.5 hPa East 8.0 km/h 16.1 km/h 77 % 0.0 mm 248 W/m2
14:55 5.4 °C 2.1 °C 1036.5 hPa East 11.3 km/h 16.1 km/h 79 % 0.0 mm 236 W/m2
15:00 5.4 °C 1.9 °C 1036.5 hPa East 4.8 km/h 12.9 km/h 78 % 0.0 mm 193 W/m2
15:05 5.3 °C 1.8 °C 1036.5 hPa ESE 6.4 km/h 12.9 km/h 78 % 0.0 mm 223 W/m2
15:10 5.3 °C 1.8 °C 1036.5 hPa ESE 3.2 km/h 12.9 km/h 78 % 0.0 mm 216 W/m2
15:15 5.5 °C 2.1 °C 1036.5 hPa East 4.8 km/h 11.3 km/h 79 % 0.0 mm 190 W/m2
15:20 5.2 °C 1.7 °C 1036.1 hPa East 8.0 km/h 12.9 km/h 78 % 0.0 mm 192 W/m2
15:25 5.2 °C 2.0 °C 1036.5 hPa ENE 8.0 km/h 12.9 km/h 80 % 0.0 mm 153 W/m2
15:30 5.1 °C 1.9 °C 1036.5 hPa ESE 11.3 km/h 12.9 km/h 80 % 0.0 mm 176 W/m2
15:35 5.1 °C 1.9 °C 1036.5 hPa SE 1.6 km/h 12.9 km/h 80 % 0.0 mm 155 W/m2
15:40 5.0 °C 2.0 °C 1036.5 hPa Calm   12.9 km/h 81 % 0.0 mm 102 W/m2
15:45 4.9 °C 2.0 °C 1036.5 hPa East 4.8 km/h 12.9 km/h 81 % 0.0 mm 165 W/m2
15:50 5.2 °C 2.3 °C 1036.5 hPa East 1.6 km/h 11.3 km/h 82 % 0.0 mm 132 W/m2
15:55 4.9 °C 2.1 °C 1036.5 hPa East 1.6 km/h 12.9 km/h 82 % 0.0 mm 91 W/m2
16:00 4.7 °C 1.9 °C 1036.5 hPa ENE 4.8 km/h 12.9 km/h 82 % 0.0 mm 70 W/m2
16:05 4.4 °C 1.4 °C 1036.5 hPa East 4.8 km/h 12.9 km/h 81 % 0.0 mm 69 W/m2
16:10 4.3 °C 1.3 °C 1036.5 hPa NE 8.0 km/h 12.9 km/h 81 % 0.0 mm 69 W/m2
16:15 4.1 °C 0.9 °C 1036.8 hPa ENE 1.6 km/h 11.3 km/h 80 % 0.0 mm 72 W/m2
16:20 3.9 °C 0.8 °C 1036.5 hPa East 3.2 km/h 11.3 km/h 80 % 0.0 mm 65 W/m2
16:25 3.8 °C 0.6 °C 1036.8 hPa Calm   12.9 km/h 80 % 0.0 mm 62 W/m2
16:30 3.7 °C 0.5 °C 1036.5 hPa East 3.2 km/h 12.9 km/h 80 % 0.0 mm 56 W/m2
16:35 3.6 °C 0.8 °C 1036.5 hPa ENE 6.4 km/h 12.9 km/h 82 % 0.0 mm 51 W/m2
16:40 3.3 °C 0.9 °C 1036.5 hPa ENE 3.2 km/h 12.9 km/h 84 % 0.0 mm 49 W/m2
16:45 3.2 °C 0.9 °C 1036.5 hPa ENE 6.4 km/h 11.3 km/h 85 % 0.0 mm 47 W/m2
16:50 2.9 °C 0.8 °C 1036.5 hPa NE 4.8 km/h 12.9 km/h 86 % 0.0 mm 42 W/m2
16:55 2.8 °C 0.9 °C 1036.5 hPa Calm   12.9 km/h 87 % 0.0 mm 37 W/m2
17:00 2.6 °C 0.7 °C 1036.5 hPa NE 1.6 km/h 11.3 km/h 87 % 0.0 mm 30 W/m2
17:05 2.4 °C 0.4 °C 1036.8 hPa ENE 6.4 km/h 12.9 km/h 87 % 0.0 mm 23 W/m2
17:10 2.1 °C 0.3 °C 1036.5 hPa NE 3.2 km/h 12.9 km/h 88 % 0.0 mm 18 W/m2
17:15 2.0 °C 0.2 °C 1036.8 hPa East 4.8 km/h 11.3 km/h 88 % 0.0 mm 12 W/m2
17:20 1.7 °C 0.1 °C 1036.8 hPa NE 6.4 km/h 11.3 km/h 89 % 0.0 mm 9 W/m2
17:25 1.4 °C -0.2 °C 1036.8 hPa NNE 4.8 km/h 12.9 km/h 89 % 0.0 mm 7 W/m2
17:35 1.1 °C -0.3 °C 1036.8 hPa NE 3.2 km/h 12.9 km/h 90 % 0.0 mm 0 W/m2
17:40 0.8 °C -0.6 °C 1036.8 hPa ENE 3.2 km/h 8.0 km/h 90 % 0.0 mm 0 W/m2
17:45 0.7 °C -0.8 °C 1036.8 hPa NE 1.6 km/h 11.3 km/h 90 % 0.0 mm 0 W/m2
17:50 0.6 °C -0.7 °C 1037.1 hPa NNE 4.8 km/h 11.3 km/h 91 % 0.0 mm 0 W/m2
17:55 0.4 °C -0.9 °C 1037.1 hPa ENE 6.4 km/h 11.3 km/h 91 % 0.0 mm 0 W/m2
18:00 0.3 °C -0.9 °C 1037.1 hPa ENE 4.8 km/h 11.3 km/h 92 % 0.0 mm 0 W/m2
18:05 0.2 °C -1.0 °C 1037.1 hPa ENE 6.4 km/h 8.0 km/h 92 % 0.0 mm 0 W/m2
18:10 0.1 °C -1.1 °C 1037.1 hPa ENE 3.2 km/h 8.0 km/h 92 % 0.0 mm 0 W/m2
18:15 -0.1 °C -1.1 °C 1036.8 hPa ENE 3.2 km/h 8.0 km/h 93 % 0.0 mm 0 W/m2
18:20 -0.1 °C -1.1 °C 1036.8 hPa ENE 3.2 km/h 6.4 km/h 93 % 0.0 mm 0 W/m2
18:25 -0.2 °C -1.2 °C 1036.8 hPa ENE 11.3 km/h 12.9 km/h 93 % 0.0 mm 0 W/m2
18:30 -0.2 °C -1.2 °C 1037.1 hPa ENE 3.2 km/h 12.9 km/h 93 % 0.0 mm 0 W/m2
18:35 -0.2 °C -1.2 °C 1036.8 hPa ENE 3.2 km/h 11.3 km/h 93 % 0.0 mm 0 W/m2
18:40 -0.2 °C -1.2 °C 1036.8 hPa ENE 6.4 km/h 11.3 km/h 93 % 0.0 mm 0 W/m2
18:45 -0.2 °C -1.2 °C 1037.1 hPa NE 3.2 km/h 11.3 km/h 93 % 0.0 mm 0 W/m2
18:50 -0.3 °C -1.3 °C 1037.1 hPa ENE 3.2 km/h 11.3 km/h 93 % 0.0 mm 0 W/m2
18:55 -0.4 °C -1.4 °C 1037.1 hPa NE 1.6 km/h 11.3 km/h 93 % 0.0 mm 0 W/m2
19:00 -0.4 °C -1.4 °C 1037.1 hPa ENE 3.2 km/h 8.0 km/h 93 % 0.0 mm 0 W/m2
19:05 -0.4 °C -1.3 °C 1036.8 hPa ENE 3.2 km/h 8.0 km/h 94 % 0.0 mm 0 W/m2
19:10 -0.5 °C -1.5 °C 1037.1 hPa ENE 3.2 km/h 8.0 km/h 93 % 0.0 mm 0 W/m2
19:15 -0.5 °C -1.3 °C 1037.1 hPa East 1.6 km/h 9.7 km/h 94 % 0.0 mm 0 W/m2
19:20 -0.6 °C -1.4 °C 1037.1 hPa East 1.6 km/h 9.7 km/h 94 % 0.0 mm 0 W/m2
19:25 -0.6 °C -1.5 °C 1037.1 hPa ENE 6.4 km/h 8.0 km/h 94 % 0.0 mm 0 W/m2
19:30 -0.7 °C -1.5 °C 1037.1 hPa ENE 6.4 km/h 6.4 km/h 94 % 0.0 mm 0 W/m2
19:35 -0.7 °C -1.5 °C 1036.8 hPa East 4.8 km/h 8.0 km/h 94 % 0.0 mm 0 W/m2
19:40 -0.7 °C -1.4 °C 1037.1 hPa East 1.6 km/h 8.0 km/h 95 % 0.0 mm 0 W/m2
19:45 -0.7 °C -1.4 °C 1037.1 hPa East 1.6 km/h 9.7 km/h 95 % 0.0 mm 0 W/m2
19:50 -0.8 °C -1.7 °C 1037.1 hPa Calm   9.7 km/h 94 % 0.0 mm 0 W/m2
19:55 -1.1 °C -1.8 °C 1037.1 hPa ENE 1.6 km/h 6.4 km/h 95 % 0.0 mm 0 W/m2
20:00 -1.2 °C -1.9 °C 1037.1 hPa Calm   6.4 km/h 95 % 0.0 mm 0 W/m2
20:05 -1.2 °C -1.9 °C 1036.8 hPa Calm   3.2 km/h 95 % 0.0 mm 0 W/m2
20:10 -1.1 °C -1.8 °C 1036.8 hPa Calm   3.2 km/h 95 % 0.0 mm 0 W/m2
20:15 -1.2 °C -1.9 °C 1037.1 hPa Calm   3.2 km/h 95 % 0.0 mm 0 W/m2
20:20 -1.3 °C -2.0 °C 1037.1 hPa ENE 1.6 km/h 3.2 km/h 95 % 0.0 mm 0 W/m2
20:25 -1.4 °C -2.1 °C 1037.1 hPa ENE 1.6 km/h 4.8 km/h 95 % 0.0 mm 0 W/m2
20:30 -1.4 °C -2.1 °C 1037.1 hPa Calm   4.8 km/h 95 % 0.0 mm 0 W/m2
20:35 -1.5 °C -2.1 °C 1037.1 hPa Calm   3.2 km/h 96 % 0.0 mm 0 W/m2
20:40 -1.7 °C -2.4 °C 1037.1 hPa Calm   1.6 km/h 95 % 0.0 mm 0 W/m2
20:45 -1.8 °C -2.5 °C 1037.1 hPa ENE 1.6 km/h 3.2 km/h 95 % 0.0 mm 0 W/m2
20:50 -2.1 °C -2.8 °C 1037.1 hPa Calm   3.2 km/h 95 % 0.0 mm 0 W/m2
20:55 -2.2 °C -2.8 °C 1037.1 hPa ENE 1.6 km/h 3.2 km/h 96 % 0.0 mm 0 W/m2
21:00 -2.3 °C -3.0 °C 1037.1 hPa ENE 1.6 km/h 4.8 km/h 95 % 0.0 mm 0 W/m2
21:05 -2.3 °C -2.9 °C 1037.1 hPa Calm   6.4 km/h 96 % 0.0 mm 0 W/m2
21:10 -2.2 °C -2.8 °C 1037.1 hPa ENE 1.6 km/h 6.4 km/h 96 % 0.0 mm 0 W/m2
21:15 -2.3 °C -2.8 °C 1037.1 hPa Calm   6.4 km/h 96 % 0.0 mm 0 W/m2
21:20 -2.4 °C -2.9 °C 1037.5 hPa ENE 3.2 km/h 6.4 km/h 96 % 0.0 mm 0 W/m2
21:25 -2.1 °C -2.7 °C 1037.5 hPa NE 6.4 km/h 6.4 km/h 96 % 0.0 mm 0 W/m2
21:30 -1.8 °C -2.3 °C 1037.5 hPa NE 1.6 km/h 6.4 km/h 96 % 0.0 mm 0 W/m2
21:35 -1.6 °C -2.0 °C 1037.5 hPa Calm   6.4 km/h 97 % 0.0 mm 0 W/m2
21:40 -1.6 °C -2.1 °C 1037.5 hPa Calm   6.4 km/h 96 % 0.0 mm 0 W/m2
21:45 -1.6 °C -2.2 °C 1037.5 hPa NE 3.2 km/h 6.4 km/h 96 % 0.0 mm 0 W/m2
21:50 -1.8 °C -2.3 °C 1037.5 hPa Calm   4.8 km/h 96 % 0.0 mm 0 W/m2
21:55 -1.8 °C -2.4 °C 1037.5 hPa Calm   4.8 km/h 96 % 0.0 mm 0 W/m2
22:00 -1.8 °C -2.2 °C 1037.1 hPa Calm   4.8 km/h 97 % 0.0 mm 0 W/m2
22:05 -1.9 °C -2.4 °C 1037.1 hPa NE 1.6 km/h 6.4 km/h 96 % 0.0 mm 0 W/m2
22:10 -2.0 °C -2.6 °C 1037.1 hPa NE 6.4 km/h 6.4 km/h 96 % 0.0 mm 0 W/m2
22:15 -2.1 °C -2.7 °C 1037.1 hPa NE 1.6 km/h 6.4 km/h 96 % 0.0 mm 0 W/m2
22:20 -2.0 °C -2.4 °C 1037.1 hPa NE 1.6 km/h 6.4 km/h 97 % 0.0 mm 0 W/m2
22:25 -2.0 °C -2.6 °C 1037.1 hPa Calm   4.8 km/h 96 % 0.0 mm 0 W/m2
22:30 -2.1 °C -2.5 °C 1037.1 hPa Calm   4.8 km/h 97 % 0.0 mm 0 W/m2
22:35 -2.2 °C -2.6 °C 1037.1 hPa NE 3.2 km/h 4.8 km/h 97 % 0.0 mm 0 W/m2
22:40 -2.3 °C -2.8 °C 1037.1 hPa Calm   4.8 km/h 96 % 0.0 mm 0 W/m2
22:45 -2.4 °C -3.0 °C 1037.1 hPa NE 1.6 km/h 4.8 km/h 96 % 0.0 mm 0 W/m2
22:50 -2.4 °C -2.8 °C 1037.1 hPa Calm   3.2 km/h 97 % 0.0 mm 0 W/m2
22:55 -2.4 °C -2.9 °C 1037.1 hPa NE 1.6 km/h 6.4 km/h 97 % 0.0 mm 0 W/m2
23:00 -2.4 °C -2.9 °C 1037.1 hPa NE 1.6 km/h 6.4 km/h 97 % 0.0 mm 0 W/m2
23:05 -2.5 °C -3.1 °C 1037.1 hPa NE 1.6 km/h 6.4 km/h 96 % 0.0 mm 0 W/m2
23:10 -2.5 °C -2.9 °C 1037.5 hPa Calm   6.4 km/h 97 % 0.0 mm 0 W/m2
23:15 -2.7 °C -3.1 °C 1037.5 hPa Calm   6.4 km/h 97 % 0.0 mm 0 W/m2
23:32 -2.2 °C -2.6 °C 1037.5 hPa ENE 1.6 km/h 4.8 km/h 97 % 0.0 mm 0 W/m2
23:33 -2.2 °C -2.6 °C 1037.5 hPa ENE 3.2 km/h 4.8 km/h 97 % 0.0 mm 0 W/m2
23:34 -2.2 °C -2.6 °C 1037.5 hPa ENE 3.2 km/h 4.8 km/h 97 % 0.0 mm 0 W/m2
23:35 -2.2 °C -2.6 °C 1037.5 hPa ENE 4.8 km/h 4.8 km/h 97 % 0.0 mm 0 W/m2
23:36 -2.2 °C -2.6 °C 1037.5 hPa ENE 3.2 km/h 4.8 km/h 97 % 0.0 mm 0 W/m2
23:37 -2.3 °C -2.7 °C 1037.5 hPa ENE 3.2 km/h 4.8 km/h 97 % 0.0 mm 0 W/m2
23:38 -2.3 °C -2.7 °C 1037.5 hPa ENE 3.2 km/h 4.8 km/h 97 % 0.0 mm 0 W/m2
23:39 -2.3 °C -2.7 °C 1037.5 hPa ENE 4.8 km/h 4.8 km/h 97 % 0.0 mm 0 W/m2
23:49 -2.4 °C -2.8 °C 1037.5 hPa ENE 6.4 km/h 6.4 km/h 97 % 0.0 mm 0 W/m2
Avec l'autorisation de Weather Underground - 1.75 mb